createdAt,value
2023-04-15T00:01:19.838Z,5.70
2023-04-15T00:03:48.374Z,4.90
2023-04-15T00:06:16.344Z,5.70
2023-04-15T00:08:43.823Z,5.80
2023-04-15T00:11:12.553Z,5.80
2023-04-15T00:13:40.050Z,5.90
2023-04-15T00:16:09.082Z,6.10
2023-04-15T00:18:38.463Z,5.70
2023-04-15T00:21:06.181Z,6.40
2023-04-15T00:23:33.642Z,6.10
2023-04-15T00:26:01.620Z,6.20
2023-04-15T00:28:29.532Z,5.80
2023-04-15T00:30:57.539Z,5.50
2023-04-15T00:33:25.686Z,5.80
2023-04-15T00:35:53.622Z,6.20
2023-04-15T00:38:21.216Z,6.70
2023-04-15T00:40:48.759Z,6.50
2023-04-15T00:43:16.357Z,6.00
2023-04-15T00:45:43.832Z,5.60
2023-04-15T00:48:12.516Z,6.20
2023-04-15T00:50:40.002Z,6.20
2023-04-15T00:53:07.554Z,5.80
2023-04-15T00:55:36.273Z,6.30
2023-04-15T00:58:03.853Z,5.80
2023-04-15T01:00:31.584Z,6.20
2023-04-15T01:02:59.182Z,6.50
2023-04-15T01:05:28.142Z,6.00
2023-04-15T01:07:58.364Z,6.30
2023-04-15T01:10:25.886Z,5.70
2023-04-15T01:12:53.586Z,5.70
2023-04-15T01:15:21.856Z,5.80
2023-04-15T01:17:49.998Z,5.20
2023-04-15T01:20:17.808Z,6.00
2023-04-15T01:22:45.310Z,6.40
2023-04-15T01:25:31.646Z,5.90
2023-04-15T01:27:59.482Z,5.20
2023-04-15T01:30:27.154Z,6.30
2023-04-15T01:32:55.001Z,6.50
2023-04-15T01:35:23.929Z,5.70
2023-04-15T01:37:51.615Z,5.60
2023-04-15T01:40:19.201Z,5.80
2023-04-15T01:42:47.548Z,5.30
2023-04-15T01:45:15.386Z,5.80
2023-04-15T01:47:43.592Z,5.90
2023-04-15T01:50:11.382Z,5.50
2023-04-15T01:52:38.895Z,5.80
2023-04-15T01:55:08.507Z,5.60
2023-04-15T01:57:37.181Z,5.50
2023-04-15T02:00:07.590Z,5.70
2023-04-15T02:02:36.217Z,5.60
2023-04-15T02:05:05.608Z,6.10
2023-04-15T02:07:33.239Z,5.90
2023-04-15T02:10:01.288Z,5.70
2023-04-15T02:12:28.999Z,5.90
2023-04-15T02:14:56.684Z,5.40
2023-04-15T02:17:24.208Z,5.10
2023-04-15T02:19:52.155Z,5.90
2023-04-15T02:22:19.818Z,5.20
2023-04-15T02:24:47.457Z,5.10
2023-04-15T02:27:18.473Z,6.00
2023-04-15T02:29:46.618Z,6.00
2023-04-15T02:32:14.222Z,5.80
2023-04-15T02:34:42.673Z,5.90
2023-04-15T02:37:21.235Z,5.30
2023-04-15T02:40:10.360Z,6.00
2023-04-15T02:42:39.980Z,6.20
2023-04-15T02:45:08.102Z,5.50
2023-04-15T02:47:36.131Z,6.10
2023-04-15T02:50:04.522Z,5.60
2023-04-15T02:52:32.581Z,6.20
2023-04-15T02:55:02.688Z,6.00
2023-04-15T02:57:30.258Z,6.30
2023-04-15T02:59:57.730Z,6.40
2023-04-15T03:02:25.566Z,6.50
2023-04-15T03:04:54.826Z,5.80
2023-04-15T03:07:22.305Z,5.70
2023-04-15T03:09:49.921Z,6.20
2023-04-15T03:12:18.599Z,6.10
2023-04-15T03:14:46.614Z,5.50
2023-04-15T03:17:14.129Z,6.30
2023-04-15T03:19:43.914Z,6.10
2023-04-15T03:22:11.464Z,5.80
2023-04-15T03:24:39.107Z,6.40
2023-04-15T03:27:07.993Z,6.30
2023-04-15T03:29:35.603Z,6.20
2023-04-15T03:32:03.277Z,6.10
2023-04-15T03:34:30.854Z,6.10
2023-04-15T03:36:58.403Z,6.00
2023-04-15T03:39:26.050Z,6.30
2023-04-15T03:41:53.508Z,6.30
2023-04-15T03:44:21.314Z,6.30
2023-04-15T03:46:49.185Z,6.80
2023-04-15T03:49:17.254Z,6.70
2023-04-15T03:51:45.509Z,6.00
2023-04-15T03:54:15.201Z,6.30
2023-04-15T03:56:42.742Z,6.20
2023-04-15T03:59:11.318Z,6.60
2023-04-15T04:01:38.787Z,6.60
2023-04-15T04:04:06.629Z,6.00
2023-04-15T04:06:37.497Z,5.80
2023-04-15T04:09:05.051Z,7.30
2023-04-15T04:11:33.237Z,6.20
2023-04-15T04:14:01.863Z,6.50
2023-04-15T04:16:29.427Z,6.20
2023-04-15T04:18:58.331Z,6.50
2023-04-15T04:21:26.737Z,6.50
2023-04-15T04:23:58.198Z,7.30
2023-04-15T04:26:26.411Z,7.10
2023-04-15T04:28:53.903Z,6.60
2023-04-15T04:31:21.861Z,6.40
2023-04-15T04:33:49.354Z,6.50
2023-04-15T04:36:16.937Z,7.60
2023-04-15T04:38:44.538Z,7.10
2023-04-15T04:41:12.316Z,7.00
2023-04-15T04:43:39.804Z,6.90
2023-04-15T04:46:07.829Z,7.50
2023-04-15T04:48:35.750Z,6.90
2023-04-15T04:51:04.076Z,6.90
2023-04-15T04:53:31.860Z,7.00
2023-04-15T04:55:59.467Z,7.50
2023-04-15T04:58:27.587Z,7.10
2023-04-15T05:00:56.792Z,7.20
2023-04-15T05:03:24.637Z,7.70
2023-04-15T05:05:52.316Z,6.60
2023-04-15T05:08:19.803Z,6.80
2023-04-15T05:10:47.306Z,11.20
2023-04-15T05:13:14.817Z,8.70
2023-04-15T05:15:43.440Z,10.00
2023-04-15T05:18:11.122Z,11.30
2023-04-15T05:20:39.145Z,12.50
2023-04-15T05:23:06.912Z,17.60
2023-04-15T05:25:35.131Z,16.70
2023-04-15T05:28:02.643Z,8.80
2023-04-15T05:30:30.535Z,8.90
2023-04-15T05:32:58.162Z,8.20
2023-04-15T05:35:27.225Z,8.60
2023-04-15T05:37:54.906Z,8.80
2023-04-15T05:40:22.976Z,7.60
2023-04-15T05:42:51.077Z,8.90
2023-04-15T05:45:18.768Z,8.70
2023-04-15T05:47:46.824Z,8.00
2023-04-15T05:50:14.318Z,8.40
2023-04-15T05:52:41.838Z,8.40
2023-04-15T05:55:09.806Z,8.90
2023-04-15T05:57:37.611Z,14.60
2023-04-15T06:00:05.892Z,9.60
2023-04-15T06:02:33.583Z,9.80
2023-04-15T06:05:01.472Z,8.40
2023-04-15T06:07:29.171Z,7.50
2023-04-15T06:09:56.798Z,7.70
2023-04-15T06:12:24.304Z,8.30
2023-04-15T06:14:51.739Z,9.00
2023-04-15T06:17:20.328Z,9.90
2023-04-15T06:19:47.870Z,7.20
2023-04-15T06:22:15.778Z,8.10
2023-04-15T06:24:43.486Z,6.80
2023-04-15T06:27:10.961Z,7.40
2023-04-15T06:29:38.580Z,8.10
2023-04-15T06:32:07.164Z,7.90
2023-04-15T06:34:34.682Z,8.50
2023-04-15T06:37:03.383Z,7.70
2023-04-15T06:39:37.662Z,7.70
2023-04-15T06:42:05.208Z,8.50
2023-04-15T06:44:33.897Z,8.00
2023-04-15T06:47:02.094Z,8.50
2023-04-15T06:49:29.761Z,7.30
2023-04-15T06:51:57.587Z,7.50
2023-04-15T06:54:26.534Z,7.10
2023-04-15T06:56:54.101Z,9.80
2023-04-15T06:59:21.671Z,10.20
2023-04-15T07:01:49.274Z,14.40
2023-04-15T07:04:16.979Z,12.80
2023-04-15T07:06:45.039Z,12.00
2023-04-15T07:09:12.639Z,10.80
2023-04-15T07:11:40.265Z,9.50
2023-04-15T07:14:08.348Z,8.90
2023-04-15T07:16:36.000Z,11.10
2023-04-15T07:19:04.223Z,9.10
2023-04-15T07:21:32.342Z,7.70
2023-04-15T07:23:59.905Z,7.10
2023-04-15T07:26:27.457Z,8.70
2023-04-15T07:28:55.534Z,7.30
2023-04-15T07:31:23.143Z,9.20
2023-04-15T07:33:51.130Z,9.70
2023-04-15T07:36:18.752Z,9.40
2023-04-15T07:38:46.257Z,8.80
2023-04-15T07:41:14.285Z,8.20
2023-04-15T07:43:41.900Z,8.40
2023-04-15T07:46:09.471Z,9.30
2023-04-15T07:48:37.650Z,8.50
2023-04-15T07:51:06.272Z,9.70
2023-04-15T07:53:33.936Z,9.30
2023-04-15T07:56:01.591Z,16.00
2023-04-15T07:58:29.272Z,8.00
2023-04-15T08:00:57.025Z,7.40
2023-04-15T08:03:26.157Z,8.60
2023-04-15T08:05:54.482Z,8.60
2023-04-15T08:08:22.472Z,7.00
2023-04-15T08:10:52.672Z,10.50
2023-04-15T08:13:21.020Z,9.20
2023-04-15T08:16:14.573Z,8.20
2023-04-15T08:18:43.622Z,7.80
2023-04-15T08:21:11.849Z,9.50
2023-04-15T08:23:39.859Z,8.90
2023-04-15T08:26:09.385Z,8.80
2023-04-15T08:28:39.909Z,7.20
2023-04-15T08:31:09.295Z,9.40
2023-04-15T08:33:37.049Z,7.40
2023-04-15T08:36:05.955Z,7.00
2023-04-15T08:38:34.043Z,7.50
2023-04-15T08:41:07.483Z,7.20
2023-04-15T08:43:38.676Z,11.50
2023-04-15T08:46:06.936Z,8.00
2023-04-15T08:48:38.567Z,6.90
2023-04-15T08:51:07.024Z,6.70
2023-04-15T08:53:35.566Z,7.00
2023-04-15T08:56:10.254Z,8.20
2023-04-15T08:58:38.450Z,7.10
2023-04-15T09:01:06.331Z,6.80
2023-04-15T09:03:35.654Z,7.50
2023-04-15T09:06:06.232Z,8.30
2023-04-15T09:08:36.897Z,7.40
2023-04-15T09:11:04.558Z,8.40
2023-04-15T09:13:32.082Z,6.70
2023-04-15T09:16:04.367Z,6.30
2023-04-15T09:18:34.517Z,7.50
2023-04-15T09:21:19.552Z,6.40
2023-04-15T09:24:04.093Z,6.90
2023-04-15T09:26:36.681Z,6.50
2023-04-15T09:29:11.928Z,7.20
2023-04-15T09:31:40.675Z,7.00
2023-04-15T09:34:08.705Z,6.50
2023-04-15T09:36:54.142Z,6.90
2023-04-15T09:39:21.912Z,6.80
2023-04-15T09:42:06.975Z,7.00
2023-04-15T09:44:34.577Z,6.90
2023-04-15T09:47:02.186Z,8.90
2023-04-15T09:49:30.165Z,19.00
2023-04-15T09:52:06.044Z,13.70
2023-04-15T09:54:36.281Z,9.80
2023-04-15T09:57:08.962Z,7.60
2023-04-15T09:59:36.668Z,6.40
2023-04-15T10:02:06.773Z,7.50
2023-04-15T10:04:38.395Z,6.30
2023-04-15T10:07:07.554Z,6.20
2023-04-15T10:09:39.379Z,6.70
2023-04-15T10:12:07.407Z,7.60
2023-04-15T10:14:38.764Z,7.10
2023-04-15T10:17:08.238Z,6.50
2023-04-15T10:19:37.996Z,6.50
2023-04-15T10:22:07.356Z,7.40
2023-04-15T10:24:35.316Z,6.90
2023-04-15T10:27:07.021Z,6.70
2023-04-15T10:29:34.710Z,6.30
2023-04-15T10:32:03.502Z,6.40
2023-04-15T10:34:32.405Z,6.30
2023-04-15T10:37:04.458Z,6.40
2023-04-15T10:39:40.059Z,6.90
2023-04-15T10:42:08.524Z,6.90
2023-04-15T10:44:38.773Z,8.40
2023-04-15T10:47:15.436Z,9.20
2023-04-15T10:49:45.853Z,8.20
2023-04-15T10:52:16.724Z,7.50
2023-04-15T10:54:44.917Z,8.50
2023-04-15T10:57:34.692Z,8.80
2023-04-15T11:00:17.287Z,11.10
2023-04-15T11:02:48.096Z,12.00
2023-04-15T11:05:17.728Z,8.80
2023-04-15T11:07:51.383Z,14.70
2023-04-15T11:10:20.790Z,13.50
2023-04-15T11:12:57.726Z,12.90
2023-04-15T11:15:32.122Z,15.00
2023-04-15T11:18:19.928Z,18.50
2023-04-15T11:20:53.973Z,15.00
2023-04-15T11:23:38.539Z,10.00
2023-04-15T11:26:11.849Z,11.40
2023-04-15T11:28:41.586Z,10.00
2023-04-15T11:31:20.129Z,12.80
2023-04-15T11:33:59.169Z,6.30
2023-04-15T11:36:29.568Z,9.60
2023-04-15T11:38:59.434Z,9.90
2023-04-15T11:41:27.226Z,14.90
2023-04-15T11:43:54.701Z,9.20
2023-04-15T11:46:30.850Z,6.70
2023-04-15T11:48:58.424Z,99.60
2023-04-15T11:51:25.997Z,100.10
2023-04-15T11:53:54.726Z,10.00
2023-04-15T11:56:26.055Z,9.20
2023-04-15T11:58:56.952Z,12.50
2023-04-15T12:01:39.669Z,20.30
2023-04-15T12:04:22.558Z,9.20
2023-04-15T12:06:52.875Z,303.80
2023-04-15T12:09:21.862Z,65.70
2023-04-15T12:11:57.232Z,159.60
2023-04-15T12:14:30.141Z,111.50
2023-04-15T12:17:00.210Z,53.50
2023-04-15T12:19:39.127Z,26.50
2023-04-15T12:22:11.226Z,17.80
2023-04-15T12:24:40.643Z,12.00
2023-04-15T12:27:11.346Z,48.70
2023-04-15T12:29:41.694Z,273.30
2023-04-15T12:32:12.078Z,166.40
2023-04-15T12:34:41.862Z,32.20
2023-04-15T12:37:12.062Z,19.10
2023-04-15T12:39:43.272Z,8.20
2023-04-15T12:42:11.604Z,8.30
2023-04-15T12:44:40.226Z,7.10
2023-04-15T12:47:09.554Z,27.20
2023-04-15T12:49:37.704Z,269.70
2023-04-15T12:52:05.890Z,117.30
2023-04-15T12:54:33.627Z,110.90
2023-04-15T12:57:01.268Z,38.30
2023-04-15T12:59:29.008Z,167.90
2023-04-15T13:01:57.007Z,161.30
2023-04-15T13:04:24.908Z,17.20
2023-04-15T13:06:52.479Z,33.90
2023-04-15T13:09:20.128Z,20.60
2023-04-15T13:11:48.902Z,18.70
2023-04-15T13:14:16.903Z,10.80
2023-04-15T13:16:44.479Z,9.40
2023-04-15T13:19:12.187Z,9.70
2023-04-15T13:21:39.856Z,11.70
2023-04-15T13:24:08.005Z,217.70
2023-04-15T13:26:36.304Z,162.20
2023-04-15T13:29:03.968Z,154.20
2023-04-15T13:31:31.527Z,630.20
2023-04-15T13:33:59.108Z,703.90
2023-04-15T13:36:27.258Z,680.60
2023-04-15T13:38:55.533Z,271.70
2023-04-15T13:41:23.041Z,345.30
2023-04-15T13:43:51.165Z,148.40
2023-04-15T13:46:19.050Z,32.70
2023-04-15T13:48:48.933Z,9.50
2023-04-15T13:51:16.526Z,9.60
2023-04-15T13:53:44.068Z,11.00
2023-04-15T13:56:13.031Z,6.80
2023-04-15T13:58:41.392Z,7.70
2023-04-15T14:01:09.287Z,127.80
2023-04-15T14:03:37.484Z,61.30
2023-04-15T14:06:08.503Z,67.00
2023-04-15T14:08:36.143Z,177.90
2023-04-15T14:11:03.727Z,25.00
2023-04-15T14:13:31.274Z,7.90
2023-04-15T14:15:58.998Z,22.50
2023-04-15T14:18:28.544Z,9.30
2023-04-15T14:20:56.864Z,7.60
2023-04-15T14:23:25.532Z,3.40
2023-04-15T14:25:54.410Z,3.40
2023-04-15T14:28:21.856Z,3.50
2023-04-15T14:30:50.014Z,3.60
2023-04-15T14:33:17.841Z,13.60
2023-04-15T14:35:46.180Z,8.80
2023-04-15T14:38:13.677Z,5.40
2023-04-15T14:40:41.459Z,4.80
2023-04-15T14:43:09.041Z,4.80
2023-04-15T14:45:39.505Z,11.30
2023-04-15T14:48:12.483Z,3.70
2023-04-15T14:50:40.557Z,4.20
2023-04-15T14:53:09.450Z,3.60
2023-04-15T14:55:36.991Z,66.80
2023-04-15T14:58:07.522Z,12.90
2023-04-15T15:00:39.179Z,5.30
2023-04-15T15:03:12.929Z,9.60
2023-04-15T15:05:46.448Z,5.50
2023-04-15T15:08:14.336Z,6.20
2023-04-15T15:10:48.511Z,5.50
2023-04-15T15:13:18.861Z,146.40
2023-04-15T15:15:46.603Z,24.90
2023-04-15T15:18:14.279Z,75.80
2023-04-15T15:20:42.009Z,8.20
2023-04-15T15:23:09.602Z,4.60
2023-04-15T15:25:37.250Z,3.80
2023-04-15T15:28:05.561Z,5.90
2023-04-15T15:30:33.088Z,3.90
2023-04-15T15:33:00.662Z,3.80
2023-04-15T15:35:28.215Z,23.50
2023-04-15T15:37:55.949Z,5.80
2023-04-15T15:40:23.677Z,4.60
2023-04-15T15:42:51.313Z,4.00
2023-04-15T15:45:18.975Z,3.10
2023-04-15T15:47:46.605Z,3.80
2023-04-15T15:50:14.561Z,2.70
2023-04-15T15:52:42.179Z,2.90
2023-04-15T15:55:10.023Z,7.50
2023-04-15T15:57:37.550Z,4.50
2023-04-15T16:00:12.063Z,3.10
2023-04-15T16:03:05.101Z,2.80
2023-04-15T16:05:28.099Z,3.10
2023-04-15T16:07:55.637Z,3.80
2023-04-15T16:10:23.324Z,8.70
2023-04-15T16:12:53.470Z,4.30
2023-04-15T16:15:23.879Z,4.20
2023-04-15T16:17:51.663Z,3.50
2023-04-15T16:20:19.344Z,2.30
2023-04-15T16:22:46.941Z,2.10
2023-04-15T16:25:14.457Z,2.10
2023-04-15T16:27:54.647Z,2.30
2023-04-15T16:30:27.160Z,2.40
2023-04-15T16:32:55.008Z,2.60
2023-04-15T16:35:23.890Z,2.70
2023-04-15T16:37:51.437Z,2.30
2023-04-15T16:40:20.286Z,2.50
2023-04-15T16:42:47.991Z,2.80
2023-04-15T16:45:15.745Z,3.20
2023-04-15T16:47:43.300Z,3.60
2023-04-15T16:50:11.026Z,2.50
2023-04-15T16:52:38.540Z,3.20
2023-04-15T16:55:06.825Z,2.90
2023-04-15T16:57:50.818Z,2.60
2023-04-15T17:00:22.675Z,2.80
2023-04-15T17:02:50.574Z,3.30
2023-04-15T17:05:18.586Z,3.00
2023-04-15T17:07:46.343Z,3.00
2023-04-15T17:10:13.900Z,2.70
2023-04-15T17:12:41.688Z,2.70
2023-04-15T17:15:09.825Z,2.70
2023-04-15T17:17:37.424Z,3.30
2023-04-15T17:20:06.725Z,2.50
2023-04-15T17:22:34.631Z,2.60
2023-04-15T17:25:03.134Z,3.20
2023-04-15T17:27:31.220Z,2.90
2023-04-15T17:29:58.818Z,6.50
2023-04-15T17:32:31.782Z,3.50
2023-04-15T17:35:06.424Z,3.80
2023-04-15T17:37:35.833Z,3.10
2023-04-15T17:40:05.296Z,2.70
2023-04-15T17:42:34.353Z,4.00
2023-04-15T17:45:02.337Z,3.60
2023-04-15T17:47:30.222Z,3.30
2023-04-15T17:49:58.044Z,2.80
2023-04-15T17:52:25.962Z,2.50
2023-04-15T17:54:53.692Z,3.60
2023-04-15T17:57:21.397Z,3.30
2023-04-15T17:59:49.444Z,3.80
2023-04-15T18:02:17.757Z,3.40
2023-04-15T18:04:45.940Z,6.40
2023-04-15T18:07:15.699Z,3.30
2023-04-15T18:09:44.341Z,3.20
2023-04-15T18:12:12.189Z,3.60
2023-04-15T18:14:39.968Z,3.90
2023-04-15T18:17:08.064Z,2.80
2023-04-15T18:19:36.187Z,3.00
2023-04-15T18:22:03.942Z,3.60
2023-04-15T18:24:32.116Z,4.30
2023-04-15T18:27:00.388Z,2.60
2023-04-15T18:29:28.534Z,2.40
2023-04-15T18:31:58.935Z,4.80
2023-04-15T18:34:27.382Z,2.50
2023-04-15T18:36:58.821Z,2.80
2023-04-15T18:39:27.848Z,2.60
2023-04-15T18:41:57.337Z,2.40
2023-04-15T18:44:25.750Z,6.00
2023-04-15T18:46:53.456Z,2.80
2023-04-15T18:49:21.299Z,2.60
2023-04-15T18:51:49.301Z,2.70
2023-04-15T18:54:16.962Z,2.80
2023-04-15T18:56:45.064Z,2.80
2023-04-15T18:59:29.303Z,3.10
2023-04-15T19:02:00.231Z,4.90
2023-04-15T19:04:31.153Z,2.90
2023-04-15T19:06:59.236Z,2.60
2023-04-15T19:09:28.882Z,2.20
2023-04-15T19:11:56.973Z,2.50
2023-04-15T19:14:24.886Z,2.50
2023-04-15T19:16:54.110Z,2.50
2023-04-15T19:19:21.956Z,2.90
2023-04-15T19:21:50.538Z,2.50
2023-04-15T19:24:19.622Z,2.50
2023-04-15T19:26:50.175Z,2.50
2023-04-15T19:29:18.504Z,2.60
2023-04-15T19:31:46.253Z,3.90
2023-04-15T19:34:14.073Z,3.00
2023-04-15T19:36:43.008Z,3.90
2023-04-15T19:39:11.340Z,5.40
2023-04-15T19:41:39.361Z,3.70
2023-04-15T19:44:06.972Z,4.20
2023-04-15T19:46:35.472Z,5.20
2023-04-15T19:49:03.497Z,4.90
2023-04-15T19:51:31.745Z,4.10
2023-04-15T19:53:59.633Z,3.40
2023-04-15T19:56:27.466Z,3.70
2023-04-15T19:58:55.238Z,5.00
2023-04-15T20:01:23.295Z,4.50
2023-04-15T20:03:54.976Z,4.50
2023-04-15T20:06:23.039Z,4.70
2023-04-15T20:08:51.700Z,3.80
2023-04-15T20:11:19.382Z,4.00
2023-04-15T20:13:47.032Z,3.70
2023-04-15T20:16:14.875Z,3.10
2023-04-15T20:18:42.608Z,2.90
2023-04-15T20:21:10.376Z,2.80
2023-04-15T20:23:38.767Z,2.80
2023-04-15T20:26:07.368Z,3.00
2023-04-15T20:28:34.967Z,2.80
2023-04-15T20:31:03.319Z,2.70
2023-04-15T20:33:31.413Z,4.80
2023-04-15T20:35:59.676Z,2.90
2023-04-15T20:38:27.321Z,2.70
2023-04-15T20:40:55.019Z,2.80
2023-04-15T20:43:23.021Z,2.80
2023-04-15T20:45:51.551Z,2.50
2023-04-15T20:48:19.239Z,2.50
2023-04-15T20:50:47.090Z,2.90
2023-04-15T20:53:15.484Z,3.20
2023-04-15T20:55:45.025Z,3.00
2023-04-15T20:58:13.048Z,2.80
2023-04-15T21:00:40.917Z,2.90
2023-04-15T21:03:08.851Z,3.10
2023-04-15T21:05:36.670Z,2.90
2023-04-15T21:08:04.437Z,2.90
2023-04-15T21:10:35.491Z,3.30
2023-04-15T21:13:03.199Z,3.40
2023-04-15T21:15:30.930Z,4.30
2023-04-15T21:17:58.827Z,3.40
2023-04-15T21:20:27.060Z,3.10
2023-04-15T21:22:54.784Z,3.20
2023-04-15T21:25:22.755Z,3.20
2023-04-15T21:27:50.655Z,3.10
2023-04-15T21:30:18.307Z,3.00
2023-04-15T21:32:46.013Z,2.90
2023-04-15T21:35:13.645Z,3.40
2023-04-15T21:37:41.193Z,3.70
2023-04-15T21:40:09.227Z,3.20
2023-04-15T21:42:36.949Z,3.20
2023-04-15T21:45:04.824Z,3.00
2023-04-15T21:47:32.446Z,3.30
2023-04-15T21:50:20.192Z,3.20
2023-04-15T21:52:47.787Z,4.90
2023-04-15T21:55:15.530Z,3.30
2023-04-15T21:57:43.324Z,3.20
2023-04-15T22:00:11.922Z,3.60
2023-04-15T22:02:42.576Z,3.50
2023-04-15T22:05:10.288Z,3.40
2023-04-15T22:07:37.948Z,3.50
2023-04-15T22:10:06.363Z,3.70
2023-04-15T22:12:34.018Z,3.50
2023-04-15T22:15:02.850Z,3.60
2023-04-15T22:17:30.867Z,3.30
2023-04-15T22:19:58.523Z,3.80
2023-04-15T22:22:26.809Z,3.30
2023-04-15T22:25:12.449Z,3.60
2023-04-15T22:27:40.155Z,3.10
2023-04-15T22:30:08.585Z,3.90
2023-04-15T22:32:36.595Z,3.60
2023-04-15T22:35:06.468Z,3.30
2023-04-15T22:37:34.137Z,3.60
2023-04-15T22:40:02.944Z,3.60
2023-04-15T22:42:30.727Z,3.30
2023-04-15T22:44:58.298Z,3.30
2023-04-15T22:47:25.899Z,3.90
2023-04-15T22:49:53.784Z,3.80
2023-04-15T22:52:29.854Z,3.90
2023-04-15T22:54:58.556Z,5.10
2023-04-15T22:57:27.900Z,4.80
2023-04-15T22:59:55.951Z,4.10
2023-04-15T23:02:23.867Z,3.50
2023-04-15T23:04:51.957Z,4.00
2023-04-15T23:07:19.615Z,3.80
2023-04-15T23:09:47.476Z,3.80
2023-04-15T23:12:14.983Z,4.30
2023-04-15T23:14:42.504Z,3.70
2023-04-15T23:17:10.336Z,3.50
2023-04-15T23:19:38.016Z,5.10
2023-04-15T23:22:07.453Z,3.80
2023-04-15T23:24:34.920Z,3.60
2023-04-15T23:27:02.668Z,3.60
2023-04-15T23:29:30.338Z,3.80
2023-04-15T23:31:58.229Z,4.10
2023-04-15T23:34:26.311Z,4.00
2023-04-15T23:36:53.894Z,4.50
2023-04-15T23:39:21.608Z,4.00
2023-04-15T23:41:49.357Z,3.50
2023-04-15T23:44:17.113Z,3.60
2023-04-15T23:46:44.614Z,3.50
2023-04-15T23:49:12.591Z,3.50
2023-04-15T23:51:40.811Z,4.00
2023-04-15T23:54:08.770Z,6.00
2023-04-15T23:56:36.678Z,13.40
2023-04-15T23:59:04.297Z,5.90
